Time;durP1;ratioP1;P1;durP2;ratioP2;P2;SDS_P1;SDS_P2;PMS_P1;PMS_P2;Temp;Humidity;BMP_temperature;BMP_pressure;BME280_temperature;BME280_humidity;BME280_pressure;Samples;Min_cycle;Max_cycle;Signal;HPM_P1;HPM_P2
2023/09/13 00:01:27;;;;;;;8.68;4.82;;;20.80;63.30;;;;;;5113060;27;20023;-63
2023/09/13 00:03:52;;;;;;;6.65;4.55;;;20.80;62.80;;;;;;5111369;27;20138;-62
2023/09/13 00:06:18;;;;;;;7.43;4.25;;;20.80;62.90;;;;;;5112100;27;20474;-62
2023/09/13 00:08:44;;;;;;;6.85;4.57;;;20.80;62.90;;;;;;5089012;28;20056;-61
2023/09/13 00:11:10;;;;;;;4.75;3.95;;;20.80;63.00;;;;;;5091759;28;20484;-62
2023/09/13 00:13:36;;;;;;;6.63;4.28;;;20.80;62.70;;;;;;5087721;28;20036;-61
2023/09/13 00:16:03;;;;;;;7.53;4.47;;;20.80;62.50;;;;;;5091175;28;20573;-61
2023/09/13 00:18:28;;;;;;;9.23;4.22;;;20.80;62.50;;;;;;5083691;28;20024;-62
2023/09/13 00:20:54;;;;;;;4.72;4.03;;;20.80;62.50;;;;;;5093457;28;20016;-61
2023/09/13 00:23:20;;;;;;;6.97;4.40;;;20.80;62.50;;;;;;5094761;28;20020;-62
2023/09/13 00:25:46;;;;;;;6.47;4.05;;;20.70;62.60;;;;;;5084024;28;20063;-62
2023/09/13 00:28:12;;;;;;;5.10;4.03;;;20.70;62.80;;;;;;5091642;28;20056;-62
2023/09/13 00:30:38;;;;;;;6.32;4.88;;;20.70;63.00;;;;;;5087187;28;20034;-61
2023/09/13 00:33:04;;;;;;;5.35;4.38;;;20.70;63.20;;;;;;5092731;28;20031;-62
2023/09/13 00:35:29;;;;;;;7.40;4.18;;;20.70;63.30;;;;;;5094916;28;20535;-62
2023/09/13 00:37:55;;;;;;;6.35;4.50;;;20.70;63.20;;;;;;5086110;28;20042;-62
2023/09/13 00:40:21;;;;;;;5.05;3.92;;;20.70;63.00;;;;;;5095042;28;20028;-62
2023/09/13 00:42:47;;;;;;;7.28;4.18;;;20.70;63.00;;;;;;5088808;28;20517;-61
2023/09/13 00:45:12;;;;;;;5.65;4.03;;;20.70;63.20;;;;;;4999269;28;20035;-62
2023/09/13 00:47:42;;;;;;;5.95;4.28;;;20.70;63.30;;;;;;5093669;28;20083;-62
2023/09/13 00:50:11;;;;;;;6.22;4.10;;;20.70;63.40;;;;;;5086230;28;20032;-62
2023/09/13 00:52:38;;;;;;;5.88;4.28;;;20.70;63.50;;;;;;5083530;28;20111;-63
2023/09/13 00:55:06;;;;;;;7.70;4.72;;;20.70;63.50;;;;;;5087386;28;20512;-61
2023/09/13 00:57:33;;;;;;;7.22;4.50;;;20.70;63.50;;;;;;5090455;28;20073;-62
2023/09/13 00:59:59;;;;;;;5.45;4.15;;;20.80;63.50;;;;;;5083835;28;20099;-63
2023/09/13 01:02:24;;;;;;;8.88;4.40;;;20.80;63.30;;;;;;5088235;28;20122;-63
2023/09/13 01:04:50;;;;;;;6.68;4.15;;;20.80;63.30;;;;;;5085816;28;20023;-62
2023/09/13 01:07:16;;;;;;;5.28;4.50;;;20.70;63.30;;;;;;5088202;27;20040;-62
2023/09/13 01:09:42;;;;;;;5.60;4.72;;;20.70;63.40;;;;;;5105427;28;20398;-62
2023/09/13 01:12:08;;;;;;;9.40;5.60;;;20.70;63.60;;;;;;5103991;27;20111;-61
2023/09/13 01:14:34;;;;;;;10.27;4.85;;;20.60;63.90;;;;;;5088318;28;20152;-62
2023/09/13 01:17:10;;;;;;;10.35;4.88;;;20.60;63.70;;;;;;5088256;27;20023;-61
2023/09/13 01:19:35;;;;;;;8.68;5.55;;;20.60;64.30;;;;;;5108711;27;20058;-63
2023/09/13 01:22:01;;;;;;;5.82;4.65;;;20.50;64.00;;;;;;5107765;27;20140;-63
2023/09/13 01:24:47;;;;;;;5.57;4.38;;;20.50;64.00;;;;;;5106468;27;20082;-63
2023/09/13 01:28:15;;;;;;;7.70;5.18;;;20.50;64.70;;;;;;5100501;27;20111;-63
2023/09/13 01:30:43;;;;;;;6.00;4.72;;;20.50;65.20;;;;;;4989009;28;20026;-61
2023/09/13 01:33:08;;;;;;;11.23;5.85;;;20.50;64.20;;;;;;4981869;28;20034;-62
2023/09/13 01:35:34;;;;;;;6.72;4.57;;;20.50;64.40;;;;;;4986949;28;20049;-62
2023/09/13 01:38:00;;;;;;;7.13;4.80;;;20.50;64.40;;;;;;4985777;28;20087;-63
2023/09/13 01:40:29;;;;;;;9.18;4.78;;;20.60;64.60;;;;;;4984229;28;20080;-63
2023/09/13 01:42:58;;;;;;;6.65;4.97;;;20.60;64.60;;;;;;4985168;28;20046;-61
2023/09/13 01:45:25;;;;;;;10.27;5.30;;;20.60;64.70;;;;;;4891366;28;20133;-61
2023/09/13 01:47:52;;;;;;;8.10;4.50;;;20.60;64.50;;;;;;4982058;28;20552;-62
2023/09/13 01:50:19;;;;;;;15.70;5.00;;;20.60;64.60;;;;;;4989294;28;20338;-62
2023/09/13 01:52:45;;;;;;;7.57;5.20;;;20.60;64.60;;;;;;4985682;28;20029;-63
2023/09/13 01:55:11;;;;;;;11.75;4.80;;;20.60;64.70;;;;;;4979614;28;20046;-62
2023/09/13 01:57:37;;;;;;;8.18;5.22;;;20.60;64.80;;;;;;4984601;28;20018;-62
2023/09/13 02:00:06;;;;;;;6.78;4.97;;;20.70;64.90;;;;;;4983564;28;20022;-62
2023/09/13 02:02:31;;;;;;;8.15;4.25;;;20.70;64.80;;;;;;5098392;27;20035;-63
2023/09/13 02:04:57;;;;;;;7.15;4.80;;;20.70;64.70;;;;;;5103667;27;20056;-62
2023/09/13 02:07:23;;;;;;;6.53;4.63;;;20.70;64.80;;;;;;5103013;27;20505;-61
2023/09/13 02:09:49;;;;;;;7.70;4.90;;;20.70;64.80;;;;;;5092275;28;20114;-62
2023/09/13 02:12:14;;;;;;;6.78;4.65;;;20.80;64.80;;;;;;5091213;28;20126;-62
2023/09/13 02:14:40;;;;;;;7.78;4.63;;;20.80;64.70;;;;;;5086867;28;20035;-61
2023/09/13 02:17:07;;;;;;;9.73;4.78;;;20.80;64.90;;;;;;5089422;28;20240;-62
2023/09/13 02:19:33;;;;;;;6.20;4.65;;;20.90;65.10;;;;;;5090241;28;20119;-62
2023/09/13 02:21:59;;;;;;;9.27;4.60;;;20.90;65.10;;;;;;5082821;28;20103;-62
2023/09/13 02:24:25;;;;;;;7.35;4.70;;;20.90;65.10;;;;;;5081057;28;20020;-61
2023/09/13 02:26:58;;;;;;;7.50;4.82;;;20.90;65.00;;;;;;5081584;28;20020;-62
2023/09/13 02:29:24;;;;;;;6.03;4.55;;;21.00;65.50;;;;;;5078775;28;20078;-62
2023/09/13 02:31:50;;;;;;;11.60;4.60;;;21.00;65.10;;;;;;5079226;28;20066;-62
2023/09/13 02:34:15;;;;;;;5.63;4.32;;;21.00;65.10;;;;;;5085576;28;20325;-61
2023/09/13 02:36:41;;;;;;;9.55;4.25;;;21.00;65.10;;;;;;5088182;28;20024;-62
2023/09/13 02:39:29;;;;;;;6.05;4.18;;;21.00;65.10;;;;;;5076022;28;20047;-62
2023/09/13 02:41:55;;;;;;;7.88;4.40;;;21.10;66.00;;;;;;5082952;28;20372;-62
2023/09/13 02:44:28;;;;;;;6.43;4.50;;;21.10;65.20;;;;;;5081468;28;20027;-63
2023/09/13 02:46:53;;;;;;;5.65;4.28;;;21.10;65.40;;;;;;5083674;28;20067;-61
2023/09/13 02:49:20;;;;;;;4.65;4.10;;;21.10;65.60;;;;;;5076519;28;20097;-63
2023/09/13 02:51:47;;;;;;;6.05;4.70;;;21.20;65.70;;;;;;5080388;28;20115;-62
2023/09/13 02:54:14;;;;;;;5.22;4.57;;;21.20;65.70;;;;;;5079059;28;20520;-62
2023/09/13 02:56:39;;;;;;;12.85;4.75;;;21.30;65.80;;;;;;5060855;28;20024;-62
2023/09/13 02:59:05;;;;;;;5.97;4.70;;;21.30;65.70;;;;;;5086904;28;20020;-63
2023/09/13 03:01:31;;;;;;;6.22;4.57;;;21.30;65.70;;;;;;5082938;28;20486;-63
2023/09/13 03:03:57;;;;;;;5.45;4.32;;;21.40;65.80;;;;;;5089741;28;20035;-63
2023/09/13 03:06:22;;;;;;;5.95;4.35;;;21.40;65.60;;;;;;5087844;28;20024;-62
2023/09/13 03:08:48;;;;;;;7.38;4.32;;;21.40;65.60;;;;;;5092306;27;20142;-62
2023/09/13 03:11:16;;;;;;;8.60;4.72;;;21.40;65.60;;;;;;5112603;27;20027;-62
2023/09/13 03:13:43;;;;;;;6.32;4.22;;;21.50;65.70;;;;;;5112920;27;20043;-62
2023/09/13 03:16:15;;;;;;;8.82;4.90;;;21.50;65.50;;;;;;5107368;27;20090;-61
2023/09/13 03:18:41;;;;;;;8.38;4.95;;;21.50;65.60;;;;;;5104023;27;20031;-62
2023/09/13 03:21:11;;;;;;;11.95;5.15;;;21.50;65.40;;;;;;5086870;28;20031;-63
2023/09/13 03:23:38;;;;;;;7.78;4.75;;;21.50;65.40;;;;;;5101956;27;20027;-62
2023/09/13 03:26:18;;;;;;;5.95;4.63;;;21.50;65.10;;;;;;5101918;27;20157;-61
2023/09/13 03:28:46;;;;;;;6.25;4.50;;;21.50;65.60;;;;;;5082576;28;20776;-61
2023/09/13 03:31:14;;;;;;;7.80;4.72;;;21.50;65.20;;;;;;5097940;28;20075;-62
2023/09/13 03:33:40;;;;;;;5.82;4.40;;;21.50;65.30;;;;;;5088485;28;20031;-62
2023/09/13 03:36:10;;;;;;;6.97;5.03;;;21.50;65.30;;;;;;5106768;27;20061;-63
2023/09/13 03:38:39;;;;;;;9.07;4.70;;;21.50;65.60;;;;;;5102649;28;20032;-63
2023/09/13 03:41:09;;;;;;;12.18;5.03;;;21.50;65.30;;;;;;5109544;28;20030;-63
2023/09/13 03:43:35;;;;;;;6.70;4.90;;;21.50;65.60;;;;;;5105738;28;20054;-63
2023/09/13 03:46:03;;;;;;;5.90;4.32;;;21.50;65.40;;;;;;5009377;28;20062;-62
2023/09/13 03:48:33;;;;;;;9.48;5.50;;;21.50;65.50;;;;;;5105317;28;20016;-62
2023/09/13 03:50:59;;;;;;;5.78;3.97;;;21.50;65.70;;;;;;5106926;28;20024;-62
2023/09/13 03:53:25;;;;;;;6.95;4.13;;;21.50;65.70;;;;;;5113823;28;20053;-61
2023/09/13 03:55:54;;;;;;;5.63;3.72;;;21.40;65.70;;;;;;5102573;28;20031;-62
2023/09/13 03:58:20;;;;;;;5.50;3.88;;;21.40;66.10;;;;;;5110822;28;20028;-62
2023/09/13 04:00:46;;;;;;;6.60;4.10;;;21.50;66.00;;;;;;5076431;28;20440;-62
2023/09/13 04:03:13;;;;;;;5.28;3.80;;;21.50;66.00;;;;;;5104642;28;20379;-63
2023/09/13 04:05:39;;;;;;;6.25;4.68;;;21.50;66.00;;;;;;5105701;28;20055;-62
2023/09/13 04:08:04;;;;;;;4.55;3.95;;;21.50;66.10;;;;;;5104762;28;20473;-63
2023/09/13 04:10:30;;;;;;;5.78;4.28;;;21.50;66.00;;;;;;5107982;28;20058;-62
2023/09/13 04:12:56;;;;;;;5.57;4.10;;;21.50;66.10;;;;;;5084236;28;20100;-62
2023/09/13 04:15:21;;;;;;;5.28;4.18;;;21.40;66.10;;;;;;5104932;28;20151;-63
2023/09/13 04:17:47;;;;;;;7.50;4.03;;;21.40;66.10;;;;;;5111375;28;20439;-63
2023/09/13 04:20:13;;;;;;;5.13;3.85;;;21.40;66.10;;;;;;5111577;28;20023;-63
2023/09/13 04:22:39;;;;;;;5.57;4.45;;;21.40;66.10;;;;;;5109498;28;20079;-62
2023/09/13 04:25:05;;;;;;;4.65;3.72;;;21.40;66.10;;;;;;5101676;28;20035;-62
2023/09/13 04:27:31;;;;;;;8.82;3.88;;;21.30;66.10;;;;;;5106824;27;20063;-61
2023/09/13 04:29:57;;;;;;;5.65;4.15;;;21.30;66.20;;;;;;5102930;28;20070;-62
2023/09/13 04:32:26;;;;;;;7.70;4.20;;;21.20;66.30;;;;;;5110023;27;20054;-62
2023/09/13 04:34:53;;;;;;;4.53;3.78;;;21.20;66.40;;;;;;5110235;27;20039;-63
2023/09/13 04:37:19;;;;;;;4.75;3.60;;;21.10;66.40;;;;;;5109145;27;20114;-62
2023/09/13 04:39:45;;;;;;;6.53;3.60;;;21.10;66.60;;;;;;5103368;28;20054;-62
2023/09/13 04:42:11;;;;;;;8.05;3.75;;;21.10;66.70;;;;;;5114616;27;20054;-63
2023/09/13 04:44:40;;;;;;;5.78;4.22;;;21.00;66.70;;;;;;5074535;27;20023;-64
2023/09/13 04:47:06;;;;;;;4.25;3.63;;;21.00;67.10;;;;;;5115017;27;20028;-62
2023/09/13 04:49:31;;;;;;;6.70;3.47;;;20.90;66.90;;;;;;5096247;28;20141;-62
2023/09/13 04:51:57;;;;;;;6.28;3.75;;;20.90;66.80;;;;;;5094791;28;20047;-62
2023/09/13 04:54:23;;;;;;;8.02;3.90;;;20.90;66.90;;;;;;5108629;27;20056;-62
2023/09/13 04:56:52;;;;;;;5.10;4.00;;;20.80;66.90;;;;;;5110715;27;20094;-62
2023/09/13 04:59:18;;;;;;;6.95;4.40;;;20.80;67.00;;;;;;5097460;28;20072;-62
2023/09/13 05:01:44;;;;;;;6.07;3.78;;;20.80;66.90;;;;;;5105364;27;20034;-62
2023/09/13 05:04:10;;;;;;;5.43;4.22;;;20.80;67.00;;;;;;5101866;27;20023;-62
2023/09/13 05:06:36;;;;;;;6.90;4.38;;;20.70;67.70;;;;;;5105239;27;20035;-62
2023/09/13 05:09:04;;;;;;;7.30;3.75;;;20.70;67.20;;;;;;5077816;28;20044;-63
2023/09/13 05:11:29;;;;;;;9.32;3.92;;;20.70;67.30;;;;;;5092531;28;20032;-64
2023/09/13 05:14:14;;;;;;;7.90;4.07;;;20.60;67.30;;;;;;5080368;28;20055;-62
2023/09/13 05:16:40;;;;;;;7.78;4.13;;;20.60;67.90;;;;;;5092114;28;20039;-61
2023/09/13 05:19:06;;;;;;;6.15;3.60;;;20.60;67.10;;;;;;5084507;28;20486;-63
2023/09/13 05:21:33;;;;;;;9.70;4.68;;;20.60;67.10;;;;;;5081892;28;20374;-62
2023/09/13 05:23:59;;;;;;;6.07;4.70;;;20.50;67.30;;;;;;5066690;28;20032;-61
2023/09/13 05:26:25;;;;;;;6.78;4.57;;;20.40;67.40;;;;;;5091954;28;20378;-62
2023/09/13 05:28:51;;;;;;;5.07;4.30;;;20.40;67.70;;;;;;5088008;28;20502;-62
2023/09/13 05:31:17;;;;;;;5.55;4.05;;;20.40;67.70;;;;;;5082857;28;20027;-62
2023/09/13 05:33:43;;;;;;;4.80;4.18;;;20.40;67.90;;;;;;5089366;28;20028;-63
2023/09/13 05:36:10;;;;;;;4.68;4.13;;;20.40;67.90;;;;;;5086334;28;20031;-61
2023/09/13 05:38:36;;;;;;;8.20;4.05;;;20.30;68.00;;;;;;5083285;28;20025;-61
2023/09/13 05:41:09;;;;;;;5.97;4.07;;;20.30;67.90;;;;;;5072164;28;20035;-62
2023/09/13 05:43:36;;;;;;;7.88;3.67;;;20.30;69.10;;;;;;5077867;28;20028;-63
2023/09/13 05:46:02;;;;;;;6.30;3.65;;;20.30;68.20;;;;;;4993963;28;20032;-64
2023/09/13 05:48:28;;;;;;;7.07;3.80;;;20.30;68.40;;;;;;5073462;28;20070;-62
2023/09/13 05:50:54;;;;;;;6.18;4.35;;;20.30;68.40;;;;;;5059243;28;20080;-61
2023/09/13 05:53:20;;;;;;;8.02;4.50;;;20.40;68.60;;;;;;5089490;28;20032;-63
2023/09/13 05:55:46;;;;;;;5.13;3.78;;;20.40;68.50;;;;;;5085258;28;20466;-62
2023/09/13 05:58:12;;;;;;;6.47;4.72;;;20.50;68.50;;;;;;5092441;28;20111;-63
2023/09/13 06:00:41;;;;;;;9.30;5.78;;;20.50;68.50;;;;;;5079883;28;20024;-63
2023/09/13 06:03:07;;;;;;;7.63;6.05;;;20.60;68.40;;;;;;5084050;28;20445;-63
2023/09/13 06:05:32;;;;;;;8.93;5.80;;;20.60;68.30;;;;;;5089894;28;20053;-62
2023/09/13 06:07:58;;;;;;;8.20;6.03;;;20.70;68.40;;;;;;5094322;27;20048;-63
2023/09/13 06:10:24;;;;;;;6.35;5.13;;;20.70;68.30;;;;;;5107184;27;20030;-62
2023/09/13 06:12:50;;;;;;;7.78;5.30;;;20.80;68.40;;;;;;5103067;27;20079;-62
2023/09/13 06:15:15;;;;;;;9.13;6.03;;;20.90;68.40;;;;;;5107589;27;20294;-62
2023/09/13 06:17:41;;;;;;;8.13;5.68;;;20.90;68.50;;;;;;5102383;27;20474;-62
2023/09/13 06:20:07;;;;;;;11.30;5.88;;;21.10;68.60;;;;;;5104613;27;20103;-62
2023/09/13 06:22:33;;;;;;;9.52;6.10;;;21.20;69.20;;;;;;5103348;28;20063;-63
2023/09/13 06:24:59;;;;;;;7.90;5.57;;;21.20;68.10;;;;;;5109381;27;20094;-63
2023/09/13 06:27:24;;;;;;;9.63;5.22;;;21.30;68.00;;;;;;5107825;27;20023;-62
2023/09/13 06:29:50;;;;;;;7.57;5.25;;;21.40;67.90;;;;;;5102021;28;20118;-62
2023/09/13 06:32:16;;;;;;;12.50;4.80;;;21.40;67.90;;;;;;5111059;27;20059;-62
2023/09/13 06:34:41;;;;;;;10.05;5.05;;;21.50;67.90;;;;;;5105775;27;20039;-61
2023/09/13 06:37:07;;;;;;;5.28;3.92;;;21.50;67.80;;;;;;5102936;27;20115;-62
2023/09/13 06:39:34;;;;;;;7.75;4.60;;;21.60;67.80;;;;;;5105068;27;20381;-63
2023/09/13 06:42:00;;;;;;;9.07;5.43;;;21.60;67.90;;;;;;5084757;28;20027;-62
2023/09/13 06:44:36;;;;;;;8.45;5.22;;;21.60;67.80;;;;;;5098468;27;20032;-64
2023/09/13 06:47:04;;;;;;;9.32;5.13;;;21.60;67.80;;;;;;5089999;28;20119;-61
2023/09/13 06:49:30;;;;;;;13.43;5.88;;;21.70;67.90;;;;;;5105381;27;20133;-63
2023/09/13 06:51:55;;;;;;;13.18;5.57;;;21.70;67.90;;;;;;5082580;28;20055;-63
2023/09/13 06:54:21;;;;;;;8.68;4.97;;;21.80;67.90;;;;;;5110443;27;20396;-62
2023/09/13 06:56:47;;;;;;;6.07;4.35;;;21.80;68.10;;;;;;5105285;27;20488;-62
2023/09/13 06:59:12;;;;;;;6.22;4.70;;;21.90;68.30;;;;;;5103996;27;20303;-62
2023/09/13 07:01:38;;;;;;;8.73;4.95;;;21.90;68.30;;;;;;5097772;27;20381;-62
2023/09/13 07:04:04;;;;;;;5.70;4.25;;;22.00;68.30;;;;;;5101061;27;20043;-63
2023/09/13 07:06:30;;;;;;;6.53;4.47;;;22.10;68.40;;;;;;5101064;27;20032;-63
2023/09/13 07:08:56;;;;;;;6.47;3.58;;;22.20;68.30;;;;;;5080119;28;20048;-63
2023/09/13 07:11:23;;;;;;;5.22;3.97;;;22.30;67.70;;;;;;5083667;28;20031;-63
2023/09/13 07:13:49;;;;;;;4.05;3.50;;;22.40;67.10;;;;;;5087548;28;20150;-62
2023/09/13 07:16:15;;;;;;;8.45;3.90;;;22.50;66.90;;;;;;5086647;28;20024;-62
2023/09/13 07:18:40;;;;;;;6.20;3.72;;;22.60;66.50;;;;;;5077800;28;20036;-62
2023/09/13 07:21:06;;;;;;;5.28;3.90;;;22.70;66.30;;;;;;5087504;28;20033;-62
2023/09/13 07:23:32;;;;;;;5.18;3.50;;;22.70;65.90;;;;;;5084416;28;20101;-62
2023/09/13 07:25:59;;;;;;;4.70;3.60;;;22.80;65.60;;;;;;5080639;28;20129;-63
2023/09/13 07:28:25;;;;;;;4.80;3.50;;;22.80;65.30;;;;;;5082965;28;20035;-60
2023/09/13 07:30:50;;;;;;;5.53;3.53;;;22.80;65.20;;;;;;5075877;28;20028;-62
2023/09/13 07:33:16;;;;;;;6.75;3.55;;;22.90;65.30;;;;;;5081371;28;20027;-62
2023/09/13 07:35:41;;;;;;;5.65;3.55;;;22.90;65.00;;;;;;5081551;28;20046;-62
2023/09/13 07:38:07;;;;;;;5.07;3.70;;;23.00;64.80;;;;;;5087068;28;20477;-63
2023/09/13 07:40:33;;;;;;;4.80;3.40;;;23.00;64.60;;;;;;5083537;28;20423;-62
2023/09/13 07:42:59;;;;;;;7.32;3.15;;;23.00;64.40;;;;;;5084094;28;20028;-63
2023/09/13 07:45:25;;;;;;;5.00;3.05;;;23.00;64.50;;;;;;5085917;28;20509;-62
2023/09/13 07:47:50;;;;;;;3.80;3.30;;;23.00;64.50;;;;;;5090776;28;20020;-61
2023/09/13 07:50:52;;;;;;;9.07;3.72;;;23.00;64.70;;;;;;5083776;28;20028;-62
2023/09/13 07:53:17;;;;;;;3.72;3.25;;;23.00;64.40;;;;;;5022893;28;20030;-62
2023/09/13 07:55:43;;;;;;;4.80;3.53;;;23.00;64.30;;;;;;5026605;28;20034;-61
2023/09/13 07:58:09;;;;;;;5.00;3.22;;;23.10;64.50;;;;;;5025432;28;20612;-63
2023/09/13 08:00:34;;;;;;;4.18;3.20;;;23.10;64.50;;;;;;5024542;28;20152;-62
2023/09/13 08:03:01;;;;;;;5.72;3.40;;;23.20;64.60;;;;;;5024420;28;20037;-61
2023/09/13 08:05:27;;;;;;;4.85;3.17;;;23.20;64.40;;;;;;5028698;28;20080;-62
2023/09/13 08:07:53;;;;;;;7.93;3.08;;;23.30;64.10;;;;;;5037364;28;20078;-62
2023/09/13 08:10:21;;;;;;;5.38;3.65;;;23.40;64.10;;;;;;5049206;28;20670;-61
2023/09/13 08:12:48;;;;;;;3.63;3.00;;;23.50;64.20;;;;;;5044708;28;20063;-63
2023/09/13 08:15:14;;;;;;;3.97;3.15;;;23.60;63.50;;;;;;5046779;28;20575;-63
2023/09/13 08:17:39;;;;;;;6.22;2.92;;;23.70;63.40;;;;;;5047773;28;20107;-63
2023/09/13 08:20:08;;;;;;;4.47;2.97;;;23.80;63.10;;;;;;5041999;28;20155;-61
2023/09/13 08:22:35;;;;;;;3.97;3.00;;;23.80;62.40;;;;;;5041965;28;20029;-62
2023/09/13 08:25:00;;;;;;;3.85;3.00;;;23.90;62.30;;;;;;5034247;28;20017;-61
2023/09/13 08:27:26;;;;;;;4.47;3.00;;;23.90;62.30;;;;;;5073094;28;20595;-62
2023/09/13 08:29:53;;;;;;;3.83;2.85;;;23.90;61.70;;;;;;5071801;28;20032;-62
2023/09/13 08:32:19;;;;;;;3.60;2.50;;;23.90;61.70;;;;;;5097571;28;20065;-61
2023/09/13 08:34:45;;;;;;;7.32;3.50;;;23.90;61.40;;;;;;5108651;27;20470;-61
2023/09/13 08:37:10;;;;;;;4.95;2.88;;;23.90;61.30;;;;;;5108451;27;20028;-62
2023/09/13 08:39:36;;;;;;;3.30;2.53;;;23.90;61.30;;;;;;5110117;27;20031;-63
2023/09/13 08:42:02;;;;;;;3.83;2.58;;;23.80;61.20;;;;;;5105973;28;20043;-62
2023/09/13 08:44:33;;;;;;;5.70;2.70;;;23.80;61.10;;;;;;5067355;27;20317;-62
2023/09/13 08:47:02;;;;;;;3.88;2.63;;;23.80;61.30;;;;;;5102091;28;20016;-61
2023/09/13 08:49:29;;;;;;;3.72;2.60;;;23.90;61.30;;;;;;5093987;28;20016;-61
2023/09/13 08:51:55;;;;;;;6.45;2.78;;;23.90;61.00;;;;;;5088444;28;20477;-62
2023/09/13 08:54:22;;;;;;;2.60;2.40;;;23.90;60.90;;;;;;5091176;28;20090;-63
2023/09/13 08:56:48;;;;;;;2.97;2.50;;;23.90;60.80;;;;;;5109739;27;20014;-62
2023/09/13 08:59:15;;;;;;;4.13;2.22;;;24.00;60.90;;;;;;5106067;27;20023;-62
2023/09/13 09:01:46;;;;;;;4.97;2.50;;;24.00;60.90;;;;;;5108619;27;20031;-62
2023/09/13 09:04:14;;;;;;;3.05;2.28;;;24.00;60.80;;;;;;5104666;27;20024;-63
2023/09/13 09:06:41;;;;;;;2.17;2.00;;;24.10;60.60;;;;;;5099632;28;20477;-61
2023/09/13 09:09:07;;;;;;;3.78;1.92;;;24.10;60.10;;;;;;5103086;28;20024;-64
2023/09/13 09:11:36;;;;;;;3.90;2.38;;;24.10;59.90;;;;;;5106437;27;20036;-62
2023/09/13 09:14:03;;;;;;;3.75;2.50;;;24.10;59.90;;;;;;5100615;27;20039;-62
2023/09/13 09:16:31;;;;;;;3.78;2.08;;;24.10;59.60;;;;;;5104407;27;20033;-62
2023/09/13 09:19:00;;;;;;;5.00;2.35;;;24.10;59.20;;;;;;5103726;27;20460;-62
2023/09/13 09:21:27;;;;;;;3.88;2.40;;;24.10;59.00;;;;;;5102698;27;20023;-62
2023/09/13 09:23:53;;;;;;;4.10;2.20;;;24.00;59.10;;;;;;5099259;28;20066;-62
2023/09/13 09:26:20;;;;;;;4.35;2.28;;;24.00;59.10;;;;;;5100600;27;20033;-62
2023/09/13 09:28:49;;;;;;;7.07;2.22;;;24.00;59.20;;;;;;5106007;27;20024;-62
2023/09/13 09:31:17;;;;;;;2.28;2.08;;;24.00;59.50;;;;;;5108486;27;20035;-62
2023/09/13 09:33:43;;;;;;;3.92;2.58;;;23.90;59.50;;;;;;5101853;27;20079;-62
2023/09/13 09:36:09;;;;;;;3.60;2.67;;;23.80;59.50;;;;;;5102155;27;20466;-62
2023/09/13 09:38:35;;;;;;;3.80;2.45;;;23.80;59.70;;;;;;5092257;28;20565;-62
2023/09/13 09:41:02;;;;;;;3.58;2.20;;;23.80;59.90;;;;;;5103675;27;20119;-61
2023/09/13 09:43:29;;;;;;;5.57;2.58;;;23.70;60.30;;;;;;5100413;28;20696;-63
2023/09/13 09:45:55;;;;;;;3.55;2.58;;;23.70;60.30;;;;;;5048389;27;20438;-61
2023/09/13 09:48:20;;;;;;;2.90;2.28;;;23.60;60.30;;;;;;5106473;27;20131;-61
2023/09/13 09:50:48;;;;;;;3.22;2.55;;;23.50;60.50;;;;;;5102583;28;20711;-62
2023/09/13 09:53:14;;;;;;;3.40;2.63;;;23.50;60.60;;;;;;5091255;27;20031;-62
2023/09/13 09:55:50;;;;;;;2.55;2.35;;;23.50;61.10;;;;;;5105295;27;20073;-61
2023/09/13 09:58:17;;;;;;;3.03;2.25;;;23.40;61.90;;;;;;5103102;27;20016;-62
2023/09/13 10:00:52;;;;;;;3.13;2.60;;;23.40;61.70;;;;;;5104202;27;20557;-63
2023/09/13 10:03:19;;;;;;;4.32;2.63;;;23.40;61.70;;;;;;5105446;27;20650;-61
2023/09/13 10:05:52;;;;;;;3.55;2.20;;;23.40;62.20;;;;;;5108527;27;20076;-62
2023/09/13 10:08:18;;;;;;;4.78;2.78;;;23.40;62.20;;;;;;5106596;27;20068;-61
2023/09/13 10:10:44;;;;;;;3.95;2.28;;;23.40;62.20;;;;;;5101685;27;20036;-61
2023/09/13 10:13:13;;;;;;;2.88;2.45;;;23.40;62.60;;;;;;5104754;27;20041;-61
2023/09/13 10:15:39;;;;;;;4.45;2.60;;;23.50;63.00;;;;;;5101022;27;20042;-61
2023/09/13 10:18:06;;;;;;;4.15;2.22;;;23.50;63.30;;;;;;5099750;27;20024;-61
2023/09/13 10:20:34;;;;;;;2.05;1.85;;;23.30;63.30;;;;;;5101467;27;20027;-61
2023/09/13 10:23:06;;;;;;;4.82;2.47;;;23.60;64.00;;;;;;5100455;27;20209;-61
2023/09/13 10:25:33;;;;;;;3.55;2.33;;;23.60;63.40;;;;;;5096382;28;20020;-62
2023/09/13 10:28:01;;;;;;;3.70;2.58;;;23.70;63.40;;;;;;5100237;27;20074;-62
2023/09/13 10:30:28;;;;;;;2.85;2.30;;;23.80;63.20;;;;;;5102114;27;20562;-62
2023/09/13 10:33:03;;;;;;;6.75;2.40;;;23.80;63.00;;;;;;5105823;27;20046;-60
2023/09/13 10:35:30;;;;;;;4.20;2.05;;;23.90;62.80;;;;;;5104730;27;20512;-62
2023/09/13 10:38:05;;;;;;;3.53;2.40;;;24.00;62.50;;;;;;5106164;27;20035;-61
2023/09/13 10:40:39;;;;;;;4.20;2.30;;;24.00;62.90;;;;;;5097254;28;20063;-62
2023/09/13 10:43:06;;;;;;;2.20;2.00;;;24.10;63.40;;;;;;5102081;28;20111;-61
2023/09/13 10:45:31;;;;;;;2.10;1.85;;;24.10;63.00;;;;;;5102114;27;20455;-61
2023/09/13 10:47:59;;;;;;;4.18;2.05;;;24.20;63.00;;;;;;5100394;28;20031;-61
2023/09/13 10:50:26;;;;;;;3.03;2.20;;;24.30;63.20;;;;;;5104241;27;20016;-61
2023/09/13 10:52:52;;;;;;;3.45;2.05;;;24.40;63.30;;;;;;5099189;27;20024;-62
2023/09/13 10:55:19;;;;;;;3.05;2.08;;;24.50;62.50;;;;;;5100504;27;20073;-62
2023/09/13 10:57:46;;;;;;;3.38;2.13;;;24.60;61.90;;;;;;5104145;27;20032;-62
2023/09/13 11:00:14;;;;;;;4.80;2.22;;;24.70;61.10;;;;;;5097158;27;20027;-62
2023/09/13 11:02:41;;;;;;;2.15;1.90;;;24.70;61.60;;;;;;5101896;27;20047;-62
2023/09/13 11:05:09;;;;;;;2.38;1.90;;;24.80;61.20;;;;;;5103403;27;20027;-61
2023/09/13 11:07:43;;;;;;;1.95;1.70;;;24.80;60.50;;;;;;5101092;27;20438;-62
2023/09/13 11:10:13;;;;;;;4.10;1.90;;;24.80;59.40;;;;;;5100647;27;20495;-62
2023/09/13 11:12:39;;;;;;;2.78;1.70;;;24.80;59.70;;;;;;5094331;28;20035;-62
2023/09/13 11:15:25;;;;;;;3.17;1.75;;;24.80;59.50;;;;;;5100007;28;20028;-63
2023/09/13 11:17:56;;;;;;;2.90;1.67;;;24.70;59.10;;;;;;5080504;28;20470;-62
2023/09/13 11:20:22;;;;;;;3.47;1.67;;;24.70;59.70;;;;;;5102666;27;20134;-62
2023/09/13 11:23:01;;;;;;;2.83;1.88;;;24.70;59.40;;;;;;5094368;28;20038;-62
2023/09/13 11:25:34;;;;;;;1.80;1.55;;;24.70;59.30;;;;;;5099867;28;20026;-63
2023/09/13 11:28:07;;;;;;;2.70;1.63;;;24.70;58.90;;;;;;5080436;27;20079;-62
2023/09/13 11:30:49;;;;;;;2.78;1.60;;;24.60;58.50;;;;;;5096576;28;20477;-62
2023/09/13 11:33:14;;;;;;;1.75;1.45;;;24.50;59.00;;;;;;5101759;28;20386;-62
2023/09/13 11:35:42;;;;;;;2.03;1.42;;;24.50;58.80;;;;;;5108924;27;20040;-61
2023/09/13 11:38:08;;;;;;;1.85;1.40;;;24.50;58.50;;;;;;5100072;28;20036;-62
2023/09/13 11:40:34;;;;;;;2.08;1.30;;;24.40;58.50;;;;;;5098836;28;20128;-61
2023/09/13 11:43:01;;;;;;;2.00;1.40;;;24.30;58.40;;;;;;5103432;27;20104;-61
2023/09/13 11:45:30;;;;;;;2.63;1.60;;;24.30;58.40;;;;;;5104443;28;20020;-62
2023/09/13 11:47:56;;;;;;;2.63;1.65;;;24.20;58.60;;;;;;5008034;28;20118;-63
2023/09/13 11:50:22;;;;;;;1.92;1.40;;;24.20;58.50;;;;;;5078888;28;20141;-63
2023/09/13 11:53:13;;;;;;;1.40;1.30;;;24.20;58.70;;;;;;5102241;28;20072;-62
2023/09/13 11:55:59;;;;;;;1.77;1.27;;;24.10;58.60;;;;;;5101955;28;20039;-63
2023/09/13 11:58:32;;;;;;;2.10;1.52;;;24.10;58.80;;;;;;5090734;28;20040;-61
2023/09/13 12:01:03;;;;;;;1.63;1.17;;;24.10;59.10;;;;;;5098823;28;20059;-61
2023/09/13 12:03:36;;;;;;;1.65;1.30;;;24.10;59.40;;;;;;5097402;28;20028;-62
2023/09/13 12:06:06;;;;;;;2.92;1.38;;;24.10;60.00;;;;;;5096221;28;20518;-62
2023/09/13 12:08:34;;;;;;;3.17;1.30;;;24.10;59.80;;;;;;5096344;28;20038;-63
2023/09/13 12:11:04;;;;;;;2.35;1.10;;;24.20;60.00;;;;;;5102083;28;20126;-62
2023/09/13 12:13:46;;;;;;;3.20;1.08;;;24.20;59.80;;;;;;5094390;28;20034;-62
2023/09/13 12:16:13;;;;;;;3.60;1.00;;;24.20;58.40;;;;;;5099489;28;20525;-62
2023/09/13 12:18:41;;;;;;;3.00;1.20;;;24.20;58.60;;;;;;5103796;28;20470;-62
2023/09/13 12:21:08;;;;;;;1.92;1.10;;;24.10;58.40;;;;;;5101908;28;20024;-62
2023/09/13 12:23:38;;;;;;;1.73;1.55;;;24.10;58.60;;;;;;5101605;28;20032;-63
2023/09/13 12:26:09;;;;;;;2.13;1.10;;;24.00;59.20;;;;;;5075897;28;20062;-63
2023/09/13 12:28:37;;;;;;;1.90;1.20;;;24.00;58.60;;;;;;5096767;28;20588;-62
2023/09/13 12:31:10;;;;;;;2.33;1.30;;;23.90;58.50;;;;;;5098046;28;20057;-63
2023/09/13 12:33:44;;;;;;;1.73;1.30;;;23.90;59.00;;;;;;5098341;28;20752;-63
2023/09/13 12:36:10;;;;;;;2.78;1.10;;;23.80;58.90;;;;;;5097553;28;20116;-61
2023/09/13 12:38:42;;;;;;;2.90;1.35;;;23.80;58.90;;;;;;5101346;28;20035;-62
2023/09/13 12:41:12;;;;;;;3.08;1.30;;;23.90;59.00;;;;;;5096143;28;20193;-63
2023/09/13 12:43:42;;;;;;;1.58;1.30;;;23.90;59.30;;;;;;5098880;28;20031;-61
2023/09/13 12:46:09;;;;;;;1.92;1.30;;;23.90;59.10;;;;;;5102127;28;20509;-62
2023/09/13 12:48:37;;;;;;;1.20;1.10;;;24.00;59.10;;;;;;5100559;27;20019;-62